1992 OMAR (1992236N07159)


On this page: IBTrACS data - Map and Plots - Positions - Intensities - Original source data

Summary

Start Aug 23
End Sep 9
Basin WP
LMI 130 kt
Sources jtwc_wp
tokyo
cma
hko
In WMO? Yes
Related storms 1992233N07173
Previous storm 1992 LESTER (EP)
Previous in basin 1992 MISSING (WP)
Concurrent storms 1992 LOIS (WP)
1992 ANDREW (NA)
1992 MISSING (WP)
1992 LESTER (EP)
1992 OMAR (WP)
1992 POLLY (WP)
1992 POLLY1 (WP)
1992 NEWTON (EP)
1992 MADELINE (EP)
1992 RYAN (WP)
1992 POLLY-1 (WP)
1992 POLLY-1 (WP)
1992 ORLENE (EP)
1992 SIBYL (WP)
1992 INIKI (EP)
Next in basin 1992 POLLY (WP)
Next storm 1992 POLLY (WP)

top of page IBTrACS Data: File Access

top of page HURSAT Data: File Access

Image of storm

top of page Plots:

Map of storm track will not appear if FTP is down
Time series of cyclone Maximum Sustained Wind will not appear if FTP is down
Time series of cyclone Minimum Central Pressure will not appear if FTP is down

top of page Track Data:Position

jtwc_wp tokyo cma hko
Date Lat Lon Lat Lon Lat Lon Lat Lon
1992-08-23 00:00:00 6.8 158.6
1992-08-23 06:00:00 6.9 157.5
1992-08-23 12:00:00 7.1 156.6
1992-08-23 18:00:00 7.5 157.0 7.6 156.1
1992-08-24 00:00:00 8.0 156.0 8.1 155.5
1992-08-24 06:00:00 8.7 155.1 8.7 155.1
1992-08-24 12:00:00 8.6 155.4 9.0 154.6 9.0 154.6 8.9 154.7
1992-08-24 18:00:00 8.9 154.3 9.2 153.8 9.2 153.8 9.3 153.8
1992-08-25 00:00:00 9.2 153.2 9.5 152.7 9.5 152.7 9.6 153.0
1992-08-25 06:00:00 9.6 152.2 10.3 151.4 10.3 151.5 9.9 152.2
1992-08-25 12:00:00 9.9 151.2 10.7 150.4 10.7 150.4 10.2 151.4
1992-08-25 18:00:00 10.2 150.3 10.9 149.9 10.9 149.9 10.5 150.5
1992-08-26 00:00:00 10.6 149.6 11.0 149.7 11.0 149.6 10.7 149.8
1992-08-26 06:00:00 10.8 148.9 11.1 149.1 11.1 149.1 11.1 149.2
1992-08-26 12:00:00 11.1 148.4 11.2 148.8 11.2 148.8 11.4 149.0
1992-08-26 18:00:00 11.4 148.1 11.4 148.7 11.5 148.7 11.6 148.8
1992-08-27 00:00:00 11.8 148.0 11.8 148.6 11.8 148.6 11.8 148.7
1992-08-27 06:00:00 12.2 147.8 12.2 148.3 12.2 148.2 12.3 148.3
1992-08-27 12:00:00 12.5 147.3 12.4 147.7 12.4 147.7 12.6 147.7
1992-08-27 18:00:00 12.8 146.6 12.7 147.0 12.7 146.9 12.9 146.9
1992-08-28 00:00:00 13.1 145.8 13.1 146.1 13.2 146.0 13.2 146.0
1992-08-28 06:00:00 13.4 145.0 13.5 145.1 13.5 145.1 13.5 145.0
1992-08-28 12:00:00 13.6 144.2 13.7 144.2 13.7 144.2 13.7 144.1
1992-08-28 18:00:00 13.8 143.4 14.0 143.3 14.0 143.3 13.9 143.3
1992-08-29 00:00:00 14.0 142.6 14.3 142.5 14.2 142.6 14.1 142.5
jtwc_wp tokyo cma hko
1992-08-29 06:00:00 14.2 141.8 14.4 141.7 14.4 141.7 14.3 141.7
1992-08-29 12:00:00 14.4 141.1 14.2 141.1 14.5 141.2 14.0 141.1
1992-08-29 18:00:00 14.7 140.5 14.7 140.6 14.7 140.6 14.5 140.6
1992-08-30 00:00:00 15.0 140.0 15.0 140.0 15.0 140.0 14.9 140.0
1992-08-30 06:00:00 15.4 139.5 15.3 139.6 15.3 139.6 15.3 139.6
1992-08-30 12:00:00 15.8 138.9 15.8 139.2 15.7 139.2 15.6 139.1
1992-08-30 18:00:00 16.0 138.3 16.1 138.6 16.1 138.5 16.0 138.4
1992-08-31 00:00:00 16.5 137.6 16.6 137.7 16.6 137.7 16.5 137.7
1992-08-31 06:00:00 16.9 136.8 16.9 136.9 16.9 136.8 16.9 136.9
1992-08-31 12:00:00 17.3 136.0 17.2 136.0 17.2 136.0 17.1 136.0
1992-08-31 18:00:00 17.8 135.2 17.8 135.1 17.8 135.1 17.7 135.1
1992-09-01 00:00:00 18.4 134.2 18.5 134.1 18.5 134.1 18.5 134.2
1992-09-01 06:00:00 19.1 133.3 19.1 133.1 19.2 133.1 19.2 133.1
1992-09-01 12:00:00 19.8 132.2 20.0 131.9 20.0 131.9 20.0 132.0
1992-09-01 18:00:00 20.5 131.0 20.7 130.6 20.7 130.6 20.6 130.7
1992-09-02 00:00:00 21.2 129.8 21.1 129.4 21.1 129.4 21.1 129.5
1992-09-02 06:00:00 21.7 128.8 21.4 128.6 21.5 128.6 21.4 128.6
1992-09-02 12:00:00 22.1 127.8 21.6 128.2 21.7 127.9 21.7 127.8
1992-09-02 18:00:00 22.3 126.9 21.8 127.7 21.8 127.4 21.9 127.1
1992-09-03 00:00:00 22.4 126.0 21.9 126.8 22.0 126.5 22.1 126.3
1992-09-03 06:00:00 22.5 125.2 22.4 125.6 22.3 125.6 22.4 125.5
1992-09-03 12:00:00 22.5 124.5 22.4 124.9 22.5 125.0 22.6 124.8
1992-09-03 18:00:00 22.6 123.8 22.8 123.8 22.6 124.0 22.8 124.1
1992-09-04 00:00:00 22.7 123.1 23.0 123.1 22.9 123.2 23.1 123.3
jtwc_wp tokyo cma hko
1992-09-04 06:00:00 23.0 122.2 23.2 122.6 23.3 122.5 23.4 122.4
1992-09-04 12:00:00 23.4 121.3 23.5 121.6 23.6 121.7 23.8 121.2
1992-09-04 18:00:00 23.8 120.3 23.5 120.3 23.9 120.1 24.2 120.1
1992-09-05 00:00:00 24.2 119.3 24.0 119.0 24.6 119.5 24.5 119.0
1992-09-05 06:00:00 24.4 118.2 24.8 117.8 24.4 117.9 24.5 117.9
1992-09-05 12:00:00 24.4 117.1 24.6 116.4 24.4 117.0 24.2 116.8
1992-09-05 18:00:00 24.3 116.0 24.6 115.5 24.5 115.9
1992-09-06 00:00:00 24.1 114.9 24.9 114.3 24.2 114.2
1992-09-06 06:00:00 23.8 113.8 24.8 113.8 23.8 113.4
1992-09-06 12:00:00 23.6 112.7 23.6 112.8
1992-09-06 18:00:00 23.4 112.4 23.2 112.2
1992-09-07 00:00:00 23.0 112.2 23.1 111.5
1992-09-07 06:00:00 23.0 111.9 22.8 111.1
1992-09-07 12:00:00 22.7 111.0 22.6 110.5
1992-09-07 18:00:00 22.1 109.9 22.2 110.1
1992-09-08 00:00:00 21.4 108.0 21.6 109.6
1992-09-08 06:00:00 21.1 107.5 21.1 109.1
1992-09-08 12:00:00 20.9 107.2 20.5 107.8
1992-09-08 18:00:00 20.8 106.5 20.5 107.0
1992-09-09 00:00:00 20.6 106.0

top of pageTrack Data:Intensity

jtwc_wp tokyo cma hko
Date Wind Pres Wind Pres Wind Pres Wind Pres
1992-08-23 00:00:00 19. 1008.
1992-08-23 06:00:00 19. 1005.
1992-08-23 12:00:00 19. 1004.
1992-08-23 18:00:00 1004. 19. 1004.
1992-08-24 00:00:00 1004. 19. 1004.
1992-08-24 06:00:00 1004. 19. 1004.
1992-08-24 12:00:00 30. 1004. 19. 1004. 25. 1000.
1992-08-24 18:00:00 35. 1004. 19. 1004. 25. 1000.
1992-08-25 00:00:00 40. 1004. 23. 1000. 30. 995.
1992-08-25 06:00:00 45. 1000. 29. 998. 30. 995.
1992-08-25 12:00:00 45. 1000. 39. 995. 30. 995.
1992-08-25 18:00:00 50. 1000. 39. 995. 35. 990.
1992-08-26 00:00:00 55. 35. 996. 39. 995. 35. 990.
1992-08-26 06:00:00 55. 40. 992. 39. 995. 40. 985.
1992-08-26 12:00:00 55. 45. 990. 49. 985. 40. 985.
1992-08-26 18:00:00 60. 50. 985. 49. 985. 45. 980.
1992-08-27 00:00:00 65. 55. 980. 58. 980. 50. 975.
1992-08-27 06:00:00 70. 60. 975. 58. 980. 55. 970.
1992-08-27 12:00:00 75. 60. 975. 58. 975. 60. 965.
1992-08-27 18:00:00 80. 60. 975. 68. 970. 60. 965.
1992-08-28 00:00:00 85. 65. 970. 68. 970. 60. 965.
1992-08-28 06:00:00 100. 70. 960. 68. 970. 65. 960.
1992-08-28 12:00:00 115. 75. 955. 68. 965. 70. 955.
1992-08-28 18:00:00 115. 80. 950. 78. 955. 85. 945.
1992-08-29 00:00:00 120. 85. 940. 87. 945. 95. 935.
jtwc_wp tokyo cma hko
1992-08-29 06:00:00 120. 90. 935. 87. 940. 95. 935.
1992-08-29 12:00:00 125. 95. 930. 97. 935. 85. 945.
1992-08-29 18:00:00 130. 100. 920. 97. 930. 85. 945.
1992-08-30 00:00:00 130. 100. 920. 107. 925. 85. 945.
1992-08-30 06:00:00 125. 100. 920. 107. 925. 75. 955.
1992-08-30 12:00:00 125. 100. 920. 107. 925. 70. 960.
1992-08-30 18:00:00 120. 100. 920. 107. 925. 70. 960.
1992-08-31 00:00:00 120. 95. 925. 107. 925. 85. 945.
1992-08-31 06:00:00 120. 95. 925. 107. 925. 85. 945.
1992-08-31 12:00:00 120. 95. 925. 107. 925. 80. 950.
1992-08-31 18:00:00 120. 90. 935. 107. 925. 75. 955.
1992-09-01 00:00:00 115. 90. 935. 107. 930. 75. 955.
1992-09-01 06:00:00 115. 90. 935. 97. 935. 70. 960.
1992-09-01 12:00:00 110. 90. 935. 97. 935. 70. 960.
1992-09-01 18:00:00 105. 85. 945. 97. 935. 65. 965.
1992-09-02 00:00:00 100. 85. 945. 87. 940. 60. 970.
1992-09-02 06:00:00 90. 80. 950. 87. 945. 55. 975.
1992-09-02 12:00:00 85. 75. 955. 78. 955. 55. 975.
1992-09-02 18:00:00 75. 75. 955. 78. 955. 60. 970.
1992-09-03 00:00:00 70. 75. 955. 78. 955. 60. 970.
1992-09-03 06:00:00 70. 70. 960. 78. 955. 55. 975.
1992-09-03 12:00:00 65. 65. 970. 68. 965. 55. 975.
1992-09-03 18:00:00 65. 60. 975. 68. 970. 60. 970.
1992-09-04 00:00:00 60. 60. 975. 58. 975. 60. 970.
jtwc_wp tokyo cma hko
1992-09-04 06:00:00 50. 60. 975. 58. 975. 60. 970.
1992-09-04 12:00:00 45. 60. 975. 58. 975. 55. 975.
1992-09-04 18:00:00 40. 55. 980. 58. 980. 50. 975.
1992-09-05 00:00:00 40. 50. 985. 58. 980. 45. 980.
1992-09-05 06:00:00 40. 45. 985. 49. 985. 35. 985.
1992-09-05 12:00:00 35. 992. 23. 992. 25. 990.
1992-09-05 18:00:00 30. 994. 23. 992.
1992-09-06 00:00:00 25. 996. 23. 995.
1992-09-06 06:00:00 20. 996. 23. 995.
1992-09-06 12:00:00 998. 19. 995.
1992-09-06 18:00:00 998. 19. 996.
1992-09-07 00:00:00 1000. 19. 998.
1992-09-07 06:00:00 1000. 19. 998.
1992-09-07 12:00:00 1000. 19. 999.
1992-09-07 18:00:00 1000. 19. 1000.
1992-09-08 00:00:00 1002. 19. 1001.
1992-09-08 06:00:00 1002. 19. 1001.
1992-09-08 12:00:00 1002. 19. 1002.
1992-09-08 18:00:00 1004. 19. 1004.
1992-09-09 00:00:00 1006.

top of page Links to source data

Source Source file Format
jtwc_wp bwp151992.txt ATCF
tokyo bst_all.txt:Line=41503:OMAR:9215 JMA text table
cma CH1992BST.txt:Storm=16:Omar CMA text table
hko tc-besttrack-data.txt:Line=22466:OMAR HKO Text table